Time;durP1;ratioP1;P1;durP2;ratioP2;P2;SDS_P1;SDS_P2;PMS_P1;PMS_P2;Temp;Humidity;BMP_temperature;BMP_pressure;BME280_temperature;BME280_humidity;BME280_pressure;Samples;Min_cycle;Max_cycle;Signal;HPM_P1;HPM_P2
2021/09/13 00:01:19;;;;;;;1.02;0.85;;;14.60;92.60;;;;;;5097208;28;20035;-81
2021/09/13 00:03:44;;;;;;;1.63;1.15;;;14.60;92.60;;;;;;5115371;28;20020;-81
2021/09/13 00:06:10;;;;;;;2.45;0.80;;;14.60;92.60;;;;;;5115378;28;20408;-82
2021/09/13 00:08:35;;;;;;;1.15;1.00;;;14.60;92.60;;;;;;5114712;28;20031;-80
2021/09/13 00:11:01;;;;;;;0.88;0.80;;;14.60;92.60;;;;;;5115170;28;20146;-80
2021/09/13 00:13:26;;;;;;;1.20;1.10;;;14.60;92.60;;;;;;5115308;28;20472;-81
2021/09/13 00:15:52;;;;;;;1.38;0.98;;;14.60;92.70;;;;;;5115220;28;20015;-81
2021/09/13 00:18:18;;;;;;;1.50;1.08;;;14.50;92.70;;;;;;5114992;28;20029;-80
2021/09/13 00:20:43;;;;;;;1.08;1.00;;;14.50;92.70;;;;;;5096371;28;20035;-81
2021/09/13 00:23:09;;;;;;;0.80;0.80;;;14.50;92.70;;;;;;5114711;28;20076;-81
2021/09/13 00:25:34;;;;;;;1.15;1.05;;;14.50;92.70;;;;;;5115132;28;20111;-80
2021/09/13 00:28:00;;;;;;;1.10;0.95;;;14.50;92.70;;;;;;5114824;28;20055;-82
2021/09/13 00:30:26;;;;;;;1.17;1.05;;;14.50;92.70;;;;;;5096621;28;20012;-80
2021/09/13 00:32:51;;;;;;;1.00;1.00;;;14.50;92.70;;;;;;5115094;28;20028;-80
2021/09/13 00:35:17;;;;;;;0.90;0.80;;;14.50;92.70;;;;;;5114837;28;20106;-81
2021/09/13 00:37:42;;;;;;;2.05;1.15;;;14.50;92.70;;;;;;5095909;28;20092;-83
2021/09/13 00:40:08;;;;;;;0.80;0.80;;;14.50;92.60;;;;;;5114577;28;20038;-80
2021/09/13 00:42:34;;;;;;;0.95;0.75;;;14.50;92.60;;;;;;5114581;28;20028;-80
2021/09/13 00:45:01;;;;;;;1.13;0.93;;;14.60;92.70;;;;;;5114738;28;20071;-80
2021/09/13 00:47:26;;;;;;;0.93;0.93;;;14.50;92.70;;;;;;5114559;28;20028;-80
2021/09/13 00:49:52;;;;;;;1.10;1.00;;;14.50;92.70;;;;;;5114575;28;20027;-80
2021/09/13 00:52:18;;;;;;;1.33;1.05;;;14.50;92.80;;;;;;5113972;28;20024;-80
2021/09/13 00:54:45;;;;;;;0.82;0.70;;;14.40;92.80;;;;;;5096079;28;20424;-82
2021/09/13 00:57:11;;;;;;;1.15;1.08;;;14.40;92.80;;;;;;5114437;28;20020;-82
2021/09/13 00:59:37;;;;;;;1.45;1.10;;;14.50;92.80;;;;;;5114475;28;20022;-83
2021/09/13 01:02:03;;;;;;;0.93;0.88;;;14.40;92.70;;;;;;5114414;28;20472;-83
2021/09/13 01:04:28;;;;;;;0.95;0.90;;;14.50;92.70;;;;;;5114365;28;20476;-81
2021/09/13 01:06:54;;;;;;;1.25;0.90;;;14.40;92.70;;;;;;5129469;27;20503;-82
2021/09/13 01:09:20;;;;;;;1.30;0.90;;;14.40;92.70;;;;;;5096106;28;20077;-81
2021/09/13 01:11:46;;;;;;;1.23;0.90;;;14.40;92.80;;;;;;5095761;28;20038;-81
2021/09/13 01:14:14;;;;;;;0.82;0.82;;;14.40;92.80;;;;;;5114191;28;20135;-81
2021/09/13 01:16:39;;;;;;;0.77;0.77;;;14.40;92.70;;;;;;5095783;28;20472;-81
2021/09/13 01:19:05;;;;;;;0.82;0.63;;;14.40;92.70;;;;;;5114041;28;20034;-81
2021/09/13 01:21:32;;;;;;;1.00;0.57;;;14.40;92.60;;;;;;5113183;28;20044;-81
2021/09/13 01:23:58;;;;;;;1.00;0.90;;;14.40;92.60;;;;;;5113912;28;20026;-81
2021/09/13 01:26:23;;;;;;;0.82;0.60;;;14.40;92.60;;;;;;5114011;28;20027;-80
2021/09/13 01:28:49;;;;;;;0.95;0.80;;;14.40;92.60;;;;;;5114176;28;20027;-80
2021/09/13 01:31:14;;;;;;;0.50;0.45;;;14.30;92.60;;;;;;5113639;28;20373;-80
2021/09/13 01:33:40;;;;;;;0.68;0.60;;;14.30;92.60;;;;;;5113137;28;20137;-81
2021/09/13 01:36:05;;;;;;;0.80;0.70;;;14.30;92.50;;;;;;5113281;28;20485;-81
2021/09/13 01:38:32;;;;;;;0.30;0.30;;;14.30;92.60;;;;;;5113806;28;20016;-82
2021/09/13 01:40:58;;;;;;;0.32;0.32;;;14.30;92.60;;;;;;5113795;28;20035;-81
2021/09/13 01:43:23;;;;;;;0.65;0.65;;;14.30;92.50;;;;;;5113666;28;20020;-81
2021/09/13 01:45:49;;;;;;;0.70;0.70;;;14.30;92.50;;;;;;5113840;28;20492;-81
2021/09/13 01:48:15;;;;;;;0.70;0.70;;;14.20;92.50;;;;;;5113821;28;20022;-82
2021/09/13 01:50:41;;;;;;;1.13;0.93;;;14.20;92.50;;;;;;5113171;28;20086;-82
2021/09/13 01:53:06;;;;;;;0.63;0.57;;;14.20;92.60;;;;;;5113401;28;20027;-82
2021/09/13 01:55:32;;;;;;;0.30;0.30;;;14.20;92.60;;;;;;5095600;28;20491;-81
2021/09/13 01:57:57;;;;;;;1.15;1.05;;;14.20;92.60;;;;;;5113601;28;20024;-81
2021/09/13 02:00:23;;;;;;;0.95;0.50;;;14.20;92.60;;;;;;5113595;28;20035;-81
2021/09/13 02:02:48;;;;;;;0.68;0.40;;;14.10;92.50;;;;;;5113642;28;20046;-80
2021/09/13 02:05:14;;;;;;;0.55;0.55;;;14.10;92.60;;;;;;5112941;28;20024;-80
2021/09/13 02:07:39;;;;;;;0.40;0.40;;;14.10;92.50;;;;;;5095210;28;20027;-81
2021/09/13 02:10:06;;;;;;;0.50;0.50;;;14.10;92.50;;;;;;5129232;28;20027;-82
2021/09/13 02:12:32;;;;;;;0.60;0.60;;;14.10;92.50;;;;;;5113620;28;20035;-81
2021/09/13 02:14:57;;;;;;;0.95;0.77;;;14.10;92.50;;;;;;5113504;28;20020;-82
2021/09/13 02:17:23;;;;;;;0.63;0.63;;;14.00;92.50;;;;;;5113419;28;20418;-82
2021/09/13 02:19:48;;;;;;;0.70;0.70;;;14.00;92.50;;;;;;5128817;28;20016;-82
2021/09/13 02:22:15;;;;;;;0.40;0.40;;;14.00;92.60;;;;;;5113443;28;20076;-82
2021/09/13 02:24:41;;;;;;;0.50;0.50;;;14.00;92.60;;;;;;5113436;28;20136;-81
2021/09/13 02:27:06;;;;;;;0.45;0.40;;;14.00;92.60;;;;;;5113399;28;20027;-82
2021/09/13 02:29:32;;;;;;;0.57;0.57;;;14.10;92.60;;;;;;5113359;28;20468;-80
2021/09/13 02:31:58;;;;;;;1.00;0.30;;;14.00;92.60;;;;;;5113224;28;20071;-81
2021/09/13 02:34:23;;;;;;;0.60;0.60;;;14.00;92.50;;;;;;5112760;28;20100;-81
2021/09/13 02:36:49;;;;;;;0.38;0.38;;;14.10;92.50;;;;;;5113439;28;20099;-81
2021/09/13 02:39:14;;;;;;;0.40;0.40;;;14.10;92.50;;;;;;5113292;28;20410;-81
2021/09/13 02:41:40;;;;;;;0.30;0.30;;;14.10;92.50;;;;;;5113202;28;20034;-81
2021/09/13 02:44:06;;;;;;;0.32;0.32;;;14.00;92.40;;;;;;5096752;28;20015;-82
2021/09/13 02:46:31;;;;;;;0.30;0.30;;;14.00;92.50;;;;;;5116844;28;20353;-82
2021/09/13 02:48:57;;;;;;;0.60;0.60;;;14.00;92.50;;;;;;5116460;28;20016;-83
2021/09/13 02:51:22;;;;;;;0.60;0.60;;;14.00;92.50;;;;;;5116578;28;20036;-81
2021/09/13 02:53:48;;;;;;;0.50;0.50;;;14.00;92.60;;;;;;5132745;27;20031;-81
2021/09/13 02:56:14;;;;;;;0.55;0.50;;;14.00;92.60;;;;;;5098633;28;20024;-81
2021/09/13 02:58:39;;;;;;;0.68;0.52;;;14.00;92.60;;;;;;5116627;28;20035;-82
2021/09/13 03:01:05;;;;;;;0.65;0.50;;;14.00;92.60;;;;;;5132558;27;20016;-81
2021/09/13 03:03:31;;;;;;;0.88;0.70;;;14.00;92.60;;;;;;5116339;28;20047;-80
2021/09/13 03:05:56;;;;;;;1.35;0.63;;;14.00;92.60;;;;;;5116626;28;20042;-81
2021/09/13 03:08:22;;;;;;;0.60;0.60;;;14.00;92.60;;;;;;5098308;28;20034;-81
2021/09/13 03:10:47;;;;;;;0.75;0.60;;;14.00;92.60;;;;;;5098101;28;20069;-81
2021/09/13 03:13:13;;;;;;;0.57;0.57;;;14.10;92.60;;;;;;5116388;28;20476;-81
2021/09/13 03:15:39;;;;;;;0.63;0.63;;;14.10;92.60;;;;;;5116572;28;20055;-83
2021/09/13 03:18:05;;;;;;;0.70;0.70;;;14.10;92.60;;;;;;5116072;28;20058;-82
2021/09/13 03:20:30;;;;;;;0.50;0.50;;;14.10;92.50;;;;;;5115926;28;20019;-82
2021/09/13 03:22:56;;;;;;;0.45;0.45;;;14.00;92.50;;;;;;5098207;28;20146;-87
2021/09/13 03:25:23;;;;;;;0.28;0.28;;;14.00;92.50;;;;;;5116312;28;20020;-81
2021/09/13 03:27:49;;;;;;;1.00;0.70;;;14.00;92.50;;;;;;5116198;28;20054;-81
2021/09/13 03:30:15;;;;;;;0.50;0.50;;;14.00;92.50;;;;;;5097879;28;20063;-81
2021/09/13 03:32:40;;;;;;;0.82;0.50;;;14.00;92.50;;;;;;5115581;28;20126;-81
2021/09/13 03:35:06;;;;;;;0.30;0.30;;;14.00;92.50;;;;;;5116010;28;20448;-83
2021/09/13 03:37:32;;;;;;;0.45;0.40;;;14.00;92.50;;;;;;5097796;28;20353;-82
2021/09/13 03:39:58;;;;;;;0.52;0.52;;;13.90;92.50;;;;;;5115966;28;20031;-83
2021/09/13 03:42:23;;;;;;;0.40;0.40;;;13.90;92.50;;;;;;5115957;28;20031;-82
2021/09/13 03:44:49;;;;;;;0.68;0.68;;;13.90;92.50;;;;;;5115867;28;20019;-82
2021/09/13 03:47:14;;;;;;;0.32;0.30;;;14.00;92.50;;;;;;5096936;28;20020;-81
2021/09/13 03:49:40;;;;;;;0.77;0.45;;;14.00;92.40;;;;;;5115729;28;20026;-81
2021/09/13 03:52:08;;;;;;;0.40;0.40;;;13.90;92.40;;;;;;5115720;28;20123;-82
2021/09/13 03:54:37;;;;;;;0.63;0.40;;;14.00;92.40;;;;;;5115293;28;20095;-81
2021/09/13 03:57:03;;;;;;;0.30;0.30;;;14.00;92.40;;;;;;5096972;28;20057;-81
2021/09/13 03:59:29;;;;;;;0.77;0.77;;;13.90;92.40;;;;;;5114985;28;20024;-81
2021/09/13 04:01:56;;;;;;;0.77;0.77;;;13.90;92.50;;;;;;5115539;28;20062;-81
2021/09/13 04:04:24;;;;;;;1.25;1.15;;;13.90;92.50;;;;;;5115654;28;20433;-82
2021/09/13 04:06:57;;;;;;;0.68;0.68;;;14.00;92.50;;;;;;5115454;28;20027;-81
2021/09/13 04:11:58;;;;;;;1.27;0.70;;;14.10;92.40;;;;;;5115198;28;20063;-82
2021/09/13 04:14:28;;;;;;;0.60;0.60;;;14.10;92.40;;;;;;5114916;28;20098;-81
2021/09/13 04:16:55;;;;;;;1.38;1.27;;;14.10;92.40;;;;;;5097008;28;20472;-81
2021/09/13 04:19:22;;;;;;;0.63;0.63;;;14.00;92.40;;;;;;5096800;28;20019;-81
2021/09/13 04:21:49;;;;;;;1.85;0.68;;;14.00;92.40;;;;;;5114958;28;20141;-80
2021/09/13 04:24:17;;;;;;;0.65;0.65;;;14.00;92.40;;;;;;5096735;28;20429;-81
2021/09/13 04:26:43;;;;;;;0.55;0.55;;;14.00;92.40;;;;;;5096734;28;20380;-82
2021/09/13 04:29:09;;;;;;;0.57;0.57;;;13.90;92.50;;;;;;5114652;28;20020;-79
2021/09/13 04:31:35;;;;;;;0.43;0.43;;;13.90;92.50;;;;;;5114911;28;20032;-79
2021/09/13 04:34:01;;;;;;;0.68;0.57;;;13.90;92.50;;;;;;5114820;28;20016;-79
2021/09/13 04:36:26;;;;;;;0.50;0.50;;;14.00;92.40;;;;;;5114815;28;20457;-78
2021/09/13 04:38:52;;;;;;;0.47;0.47;;;13.90;92.40;;;;;;5114796;28;20034;-78
2021/09/13 04:41:18;;;;;;;0.73;0.57;;;13.90;92.50;;;;;;5114709;28;20022;-79
2021/09/13 04:43:43;;;;;;;0.55;0.55;;;13.80;92.60;;;;;;5114227;28;20353;-79
2021/09/13 04:46:09;;;;;;;0.65;0.65;;;13.80;92.60;;;;;;5114571;28;20031;-78
2021/09/13 04:48:34;;;;;;;0.50;0.50;;;13.80;92.60;;;;;;5114423;28;20058;-77
2021/09/13 04:51:00;;;;;;;0.52;0.52;;;13.80;92.60;;;;;;5114600;28;20031;-78
2021/09/13 04:53:26;;;;;;;0.63;0.60;;;13.80;92.60;;;;;;5114411;28;20015;-78
2021/09/13 04:55:51;;;;;;;0.70;0.70;;;13.80;92.80;;;;;;5096176;28;20023;-79
2021/09/13 04:58:17;;;;;;;0.88;0.70;;;13.80;92.60;;;;;;5113992;28;20019;-79
2021/09/13 05:00:42;;;;;;;0.88;0.80;;;13.80;92.60;;;;;;5114352;28;20388;-79
2021/09/13 05:03:08;;;;;;;0.75;0.68;;;13.80;92.60;;;;;;5114333;28;20023;-79
2021/09/13 05:05:34;;;;;;;1.08;0.98;;;13.80;92.70;;;;;;5114291;28;20058;-78
2021/09/13 05:07:59;;;;;;;1.25;0.82;;;13.70;92.70;;;;;;5113125;28;20032;-78
2021/09/13 05:10:25;;;;;;;0.68;0.68;;;13.80;92.70;;;;;;5114262;28;20028;-75
2021/09/13 05:12:50;;;;;;;0.60;0.60;;;13.80;92.70;;;;;;5113577;28;20075;-80
2021/09/13 05:15:16;;;;;;;0.65;0.60;;;13.70;92.70;;;;;;5114373;28;20043;-77
2021/09/13 05:17:42;;;;;;;1.42;0.90;;;13.80;92.70;;;;;;5113878;28;20012;-78
2021/09/13 05:20:08;;;;;;;0.60;0.57;;;13.80;92.70;;;;;;5114039;28;20464;-77
2021/09/13 05:22:37;;;;;;;0.80;0.80;;;13.80;92.70;;;;;;5113827;28;20272;-77
2021/09/13 05:25:04;;;;;;;1.10;0.80;;;13.90;92.70;;;;;;5113783;28;20464;-76
2021/09/13 05:27:29;;;;;;;1.65;0.95;;;13.90;92.70;;;;;;5113274;28;20024;-76
2021/09/13 05:29:55;;;;;;;0.68;0.65;;;14.00;92.60;;;;;;5113799;28;20020;-77
2021/09/13 05:32:21;;;;;;;0.57;0.57;;;14.10;92.60;;;;;;5113857;28;20036;-78
2021/09/13 05:34:46;;;;;;;0.80;0.80;;;14.10;92.60;;;;;;5113757;28;20464;-80
2021/09/13 05:37:12;;;;;;;1.25;0.70;;;14.10;92.60;;;;;;5113792;28;20055;-78
2021/09/13 05:39:38;;;;;;;1.00;0.77;;;14.10;92.60;;;;;;5113870;28;20408;-80
2021/09/13 05:42:03;;;;;;;0.70;0.70;;;14.10;92.60;;;;;;5113114;28;20019;-79
2021/09/13 05:44:29;;;;;;;0.98;0.88;;;14.10;92.60;;;;;;5113696;28;20019;-80
2021/09/13 05:46:55;;;;;;;1.35;1.20;;;14.10;92.60;;;;;;5113770;28;20425;-80
2021/09/13 05:49:20;;;;;;;1.58;1.08;;;14.10;92.70;;;;;;5113741;28;20020;-78
2021/09/13 05:51:50;;;;;;;1.40;1.13;;;14.10;92.70;;;;;;5113515;28;20092;-78
2021/09/13 05:54:17;;;;;;;1.10;0.80;;;14.10;92.80;;;;;;5113589;28;20032;-77
2021/09/13 05:56:44;;;;;;;1.80;0.98;;;14.10;92.80;;;;;;5113195;28;20053;-77
2021/09/13 05:59:10;;;;;;;1.67;1.27;;;14.10;92.80;;;;;;5113698;28;20047;-77
2021/09/13 06:01:35;;;;;;;1.63;1.10;;;14.10;92.80;;;;;;5113466;28;20083;-77
2021/09/13 06:04:02;;;;;;;1.50;1.25;;;14.20;92.80;;;;;;5113429;28;20171;-76
2021/09/13 06:06:27;;;;;;;0.82;0.77;;;14.20;92.80;;;;;;5113717;28;20073;-77
2021/09/13 06:08:52;;;;;;;1.55;1.17;;;14.20;92.70;;;;;;5113500;28;20023;-78
2021/09/13 06:11:19;;;;;;;1.63;1.40;;;14.20;92.70;;;;;;5094476;28;20120;-78
2021/09/13 06:13:44;;;;;;;2.53;1.40;;;14.20;92.70;;;;;;5113355;28;20020;-83
2021/09/13 06:16:10;;;;;;;1.95;1.27;;;14.30;92.80;;;;;;5113373;28;20049;-79
2021/09/13 06:18:36;;;;;;;2.22;1.45;;;14.20;92.80;;;;;;5114609;28;20041;-77
2021/09/13 06:21:02;;;;;;;2.22;1.55;;;14.30;92.80;;;;;;5133123;27;20051;-75
2021/09/13 06:23:27;;;;;;;1.75;1.05;;;14.30;92.80;;;;;;5117402;28;20376;-79
2021/09/13 06:25:53;;;;;;;1.85;1.23;;;14.40;92.80;;;;;;5132465;27;20019;-80
2021/09/13 06:28:18;;;;;;;1.85;1.42;;;14.40;92.70;;;;;;5117423;28;20011;-78
2021/09/13 06:30:44;;;;;;;1.83;1.40;;;14.40;92.60;;;;;;5117233;28;20375;-79
2021/09/13 06:33:09;;;;;;;1.77;1.20;;;14.40;92.70;;;;;;5117333;28;20024;-79
2021/09/13 06:35:35;;;;;;;2.25;1.30;;;14.50;92.70;;;;;;5098904;28;20016;-81
2021/09/13 06:38:01;;;;;;;1.73;1.63;;;14.50;92.70;;;;;;5117023;28;20043;-79
2021/09/13 06:40:26;;;;;;;2.25;1.48;;;14.40;92.70;;;;;;5116624;28;20050;-79
2021/09/13 06:42:52;;;;;;;2.58;1.67;;;14.50;92.70;;;;;;5098648;28;20388;-80
2021/09/13 06:45:20;;;;;;;2.03;1.65;;;14.50;92.70;;;;;;5116908;28;20024;-80
2021/09/13 06:47:46;;;;;;;1.50;1.20;;;14.60;92.70;;;;;;5116845;28;20020;-80
2021/09/13 06:50:17;;;;;;;1.77;1.10;;;14.70;92.60;;;;;;5116907;28;20465;-80
2021/09/13 06:52:44;;;;;;;1.98;1.27;;;14.70;92.60;;;;;;5116908;28;20032;-79
2021/09/13 06:55:10;;;;;;;1.35;1.15;;;14.70;92.60;;;;;;5116294;28;20452;-79
2021/09/13 06:57:35;;;;;;;1.60;1.48;;;14.80;92.60;;;;;;5116635;28;20035;-79
2021/09/13 07:00:06;;;;;;;2.42;1.63;;;14.90;92.60;;;;;;5116658;28;20016;-79
2021/09/13 07:02:32;;;;;;;2.95;1.40;;;14.90;92.60;;;;;;5116617;28;20107;-79
2021/09/13 07:04:58;;;;;;;1.98;1.35;;;15.00;92.60;;;;;;5116519;28;20056;-78
2021/09/13 07:07:23;;;;;;;1.30;1.00;;;15.10;92.50;;;;;;5116456;28;20058;-79
2021/09/13 07:09:49;;;;;;;1.38;1.17;;;15.10;92.40;;;;;;5116066;28;20016;-79
2021/09/13 07:12:16;;;;;;;2.05;1.38;;;15.20;92.40;;;;;;5116459;28;20388;-79
2021/09/13 07:14:41;;;;;;;1.20;1.05;;;15.30;92.40;;;;;;5116588;28;20484;-79
2021/09/13 07:17:07;;;;;;;2.05;1.30;;;15.40;92.30;;;;;;5116357;28;20504;-80
2021/09/13 07:19:33;;;;;;;2.47;1.20;;;15.50;92.30;;;;;;5116391;28;20023;-80
2021/09/13 07:21:58;;;;;;;1.67;1.50;;;15.50;92.20;;;;;;5116045;28;20163;-82
2021/09/13 07:24:24;;;;;;;1.67;1.30;;;15.50;92.20;;;;;;5115663;28;20381;-78
2021/09/13 07:26:49;;;;;;;3.50;2.00;;;15.50;92.30;;;;;;5116079;28;20052;-79
2021/09/13 07:29:15;;;;;;;2.03;1.45;;;15.60;92.30;;;;;;5115753;28;20024;-79
2021/09/13 07:31:40;;;;;;;2.40;1.50;;;15.60;92.40;;;;;;5115118;28;20484;-79
2021/09/13 07:34:06;;;;;;;3.67;1.65;;;15.70;92.40;;;;;;5115984;28;20444;-80
2021/09/13 07:36:32;;;;;;;2.10;1.58;;;15.80;92.40;;;;;;5115783;28;20089;-79
2021/09/13 07:38:58;;;;;;;2.15;1.40;;;15.90;92.30;;;;;;5115445;28;20460;-80
2021/09/13 07:41:24;;;;;;;1.42;1.30;;;16.00;92.20;;;;;;5115833;28;20042;-79
2021/09/13 07:43:50;;;;;;;2.85;1.50;;;16.10;92.20;;;;;;5115846;28;20527;-78
2021/09/13 07:46:15;;;;;;;1.15;1.00;;;16.10;92.20;;;;;;5115759;28;20032;-79
2021/09/13 07:48:41;;;;;;;1.83;1.30;;;16.10;92.20;;;;;;5115564;28;20016;-78
2021/09/13 07:51:07;;;;;;;1.83;1.30;;;16.20;92.20;;;;;;5115602;28;20107;-78
2021/09/13 07:53:32;;;;;;;2.03;1.48;;;16.20;92.20;;;;;;5115293;28;20030;-79
2021/09/13 07:55:58;;;;;;;1.38;0.85;;;16.30;92.20;;;;;;5115873;28;20019;-78
2021/09/13 07:58:23;;;;;;;1.10;1.00;;;16.40;92.20;;;;;;5115691;28;20027;-78
2021/09/13 08:00:49;;;;;;;1.77;1.10;;;16.40;92.10;;;;;;5097395;28;20517;-79
2021/09/13 08:03:15;;;;;;;1.90;1.52;;;16.50;92.10;;;;;;5115623;28;20024;-80
2021/09/13 08:05:40;;;;;;;2.33;1.58;;;16.60;92.10;;;;;;5115351;28;20019;-80
2021/09/13 08:08:06;;;;;;;1.65;1.52;;;16.70;92.00;;;;;;5096550;28;20460;-79
2021/09/13 08:10:32;;;;;;;2.28;1.60;;;16.70;91.90;;;;;;5115396;28;20472;-79
2021/09/13 08:12:57;;;;;;;1.30;1.05;;;16.70;92.30;;;;;;5115135;28;20032;-79
2021/09/13 08:15:24;;;;;;;1.20;1.02;;;16.80;92.10;;;;;;5115132;28;20016;-78
2021/09/13 08:17:50;;;;;;;0.73;0.70;;;16.90;92.10;;;;;;5115340;28;20030;-79
2021/09/13 08:20:16;;;;;;;1.27;1.02;;;17.00;92.00;;;;;;5096743;28;20464;-79
2021/09/13 08:22:41;;;;;;;1.27;0.95;;;17.10;92.00;;;;;;5096041;28;20069;-79
2021/09/13 08:25:07;;;;;;;1.52;1.00;;;17.20;91.90;;;;;;5114980;28;20024;-79
2021/09/13 08:27:32;;;;;;;1.40;0.90;;;17.30;91.80;;;;;;5114961;28;20028;-78
2021/09/13 08:29:58;;;;;;;2.33;1.13;;;17.50;91.80;;;;;;5114900;28;20020;-78
2021/09/13 08:32:23;;;;;;;1.30;1.20;;;17.60;91.60;;;;;;5114844;28;20027;-78
2021/09/13 08:34:51;;;;;;;1.17;1.02;;;17.80;91.60;;;;;;5096512;28;20129;-79
2021/09/13 08:37:16;;;;;;;0.70;0.70;;;17.90;91.50;;;;;;5114431;28;20495;-79
2021/09/13 08:39:42;;;;;;;1.55;0.88;;;17.90;91.50;;;;;;5096452;28;20020;-79
2021/09/13 08:42:08;;;;;;;0.85;0.73;;;17.90;91.60;;;;;;5096141;28;20103;-79
2021/09/13 08:44:34;;;;;;;0.85;0.85;;;18.00;91.70;;;;;;5114687;28;20464;-79
2021/09/13 08:47:06;;;;;;;1.05;0.90;;;18.10;91.60;;;;;;5114742;28;20419;-78
2021/09/13 08:49:40;;;;;;;2.05;1.13;;;18.20;91.50;;;;;;5129809;27;20053;-77
2021/09/13 08:52:06;;;;;;;0.68;0.68;;;18.10;91.60;;;;;;5114671;28;20039;-79
2021/09/13 08:54:35;;;;;;;0.85;0.68;;;18.20;91.70;;;;;;5114453;28;20022;-79
2021/09/13 08:57:04;;;;;;;0.87;0.67;;;18.20;91.60;;;;;;5114460;28;20110;-78
2021/09/13 08:59:35;;;;;;;1.35;0.90;;;18.30;91.60;;;;;;5114275;28;20430;-78
2021/09/13 09:02:01;;;;;;;0.50;0.50;;;18.30;91.60;;;;;;5114417;28;20047;-79
2021/09/13 09:04:29;;;;;;;0.75;0.43;;;18.40;91.60;;;;;;5113846;28;20012;-78
2021/09/13 09:06:54;;;;;;;0.50;0.50;;;18.50;91.60;;;;;;5114281;28;20110;-80
2021/09/13 09:09:22;;;;;;;1.33;0.80;;;18.50;91.60;;;;;;5114225;28;20062;-79
2021/09/13 09:11:59;;;;;;;0.68;0.68;;;18.50;91.50;;;;;;5114250;28;20035;-80
2021/09/13 09:14:33;;;;;;;0.82;0.75;;;18.60;91.50;;;;;;5095816;28;20023;-79
2021/09/13 09:17:21;;;;;;;1.27;0.90;;;18.60;91.40;;;;;;5114035;28;20020;-81
2021/09/13 09:19:47;;;;;;;0.65;0.65;;;18.60;91.40;;;;;;5113659;28;20016;-79
2021/09/13 09:22:27;;;;;;;0.70;0.70;;;18.50;91.50;;;;;;5113866;28;20070;-80
2021/09/13 09:24:55;;;;;;;0.38;0.38;;;18.50;91.40;;;;;;5113960;28;20028;-79
2021/09/13 09:27:22;;;;;;;0.52;0.30;;;18.60;91.50;;;;;;5114045;28;20024;-79
2021/09/13 09:29:48;;;;;;;0.55;0.55;;;18.60;91.50;;;;;;5113841;28;20103;-79
2021/09/13 09:32:25;;;;;;;0.38;0.38;;;18.80;91.40;;;;;;5114027;28;20110;-81
2021/09/13 09:34:53;;;;;;;0.38;0.38;;;18.90;91.30;;;;;;5113395;28;20541;-79
2021/09/13 09:37:19;;;;;;;0.35;0.20;;;19.00;91.20;;;;;;5113981;28;20055;-80
2021/09/13 09:39:53;;;;;;;0.40;0.40;;;19.10;91.20;;;;;;5113565;28;20024;-80
2021/09/13 09:42:36;;;;;;;0.20;0.20;;;19.20;91.10;;;;;;5095522;28;20488;-80
2021/09/13 09:45:05;;;;;;;0.30;0.30;;;19.30;91.10;;;;;;5113736;28;20106;-80
2021/09/13 09:47:31;;;;;;;0.40;0.40;;;19.30;91.10;;;;;;5113361;28;20030;-81
2021/09/13 09:49:58;;;;;;;0.20;0.20;;;19.30;91.10;;;;;;5113552;28;20016;-81
2021/09/13 09:52:37;;;;;;;0.17;0.17;;;19.40;91.00;;;;;;5113503;28;20039;-81
2021/09/13 09:55:10;;;;;;;0.30;0.22;;;19.40;90.90;;;;;;5117440;28;20480;-81
2021/09/13 09:57:35;;;;;;;0.43;0.43;;;19.40;91.10;;;;;;5118057;28;20023;-80
2021/09/13 10:00:20;;;;;;;0.52;0.30;;;19.40;91.10;;;;;;5118017;28;20069;-84
2021/09/13 10:02:46;;;;;;;0.28;0.28;;;19.40;91.00;;;;;;5117536;28;20028;-80
2021/09/13 10:05:12;;;;;;;0.30;0.20;;;19.40;91.00;;;;;;5117551;28;20035;-80
2021/09/13 10:07:40;;;;;;;0.35;0.35;;;19.40;91.00;;;;;;5117782;28;20514;-80
2021/09/13 10:10:06;;;;;;;0.30;0.30;;;19.40;91.00;;;;;;5117722;28;20047;-80
2021/09/13 10:12:32;;;;;;;0.30;0.30;;;19.30;91.00;;;;;;5117613;28;20050;-79
2021/09/13 10:15:01;;;;;;;0.20;0.20;;;19.40;91.00;;;;;;5117358;28;20456;-79
2021/09/13 10:17:27;;;;;;;0.30;0.30;;;19.40;91.10;;;;;;5117144;28;20473;-80
2021/09/13 10:19:52;;;;;;;0.20;0.20;;;19.40;91.10;;;;;;5117518;28;20028;-80
2021/09/13 10:22:18;;;;;;;0.40;0.40;;;19.60;91.00;;;;;;5117397;28;20152;-84
2021/09/13 10:24:47;;;;;;;0.17;0.17;;;19.70;90.80;;;;;;5117814;28;20571;-81
2021/09/13 10:27:15;;;;;;;;;;;19.80;90.70;;;;;;5117711;28;20020;-80
2021/09/13 10:29:42;;;;;;;0.10;0.10;;;19.90;90.80;;;;;;5117378;28;20375;-74
2021/09/13 10:32:12;;;;;;;0.20;0.20;;;19.90;90.70;;;;;;5132468;27;20043;-80
2021/09/13 10:34:40;;;;;;;0.40;0.40;;;20.00;90.70;;;;;;5099124;28;20350;-80
2021/09/13 10:37:10;;;;;;;0.20;0.20;;;20.20;90.60;;;;;;5117109;28;20024;-80
2021/09/13 10:39:59;;;;;;;0.50;0.50;;;20.20;90.50;;;;;;5117111;28;20777;-81
2021/09/13 10:42:36;;;;;;;0.13;0.13;;;20.20;90.50;;;;;;5116995;28;20027;-81
2021/09/13 10:45:06;;;;;;;0.28;0.28;;;20.20;90.60;;;;;;5117280;28;20069;-79
2021/09/13 10:47:33;;;;;;;0.20;0.20;;;20.20;90.70;;;;;;5116579;28;20034;-80
2021/09/13 10:50:23;;;;;;;0.40;0.40;;;20.20;90.70;;;;;;5116762;28;20091;-81
2021/09/13 10:52:53;;;;;;;0.20;0.20;;;20.20;90.70;;;;;;5116839;28;20027;-80
2021/09/13 10:55:23;;;;;;;0.40;0.30;;;20.10;90.70;;;;;;5116887;28;20369;-80
2021/09/13 10:57:55;;;;;;;;;;;20.00;90.70;;;;;;5117172;28;20024;-80
2021/09/13 11:00:39;;;;;;;0.80;0.47;;;19.70;90.90;;;;;;5116375;28;19907;-80
2021/09/13 11:03:29;;;;;;;0.55;0.40;;;19.40;91.10;;;;;;5116547;28;20027;-81
2021/09/13 11:06:08;;;;;;;0.45;0.25;;;19.20;91.20;;;;;;5116624;28;20023;-80
2021/09/13 11:08:37;;;;;;;0.30;0.30;;;19.10;91.30;;;;;;5116644;28;20098;-81
2021/09/13 11:11:10;;;;;;;0.50;0.50;;;19.00;91.40;;;;;;5116496;28;20073;-80
2021/09/13 11:13:36;;;;;;;0.10;0.10;;;19.00;91.40;;;;;;5098027;28;20051;-80
2021/09/13 11:16:02;;;;;;;0.20;0.20;;;19.00;91.30;;;;;;5116118;28;20436;-79
2021/09/13 11:18:34;;;;;;;0.65;0.40;;;19.10;91.30;;;;;;5116332;28;20094;-80
2021/09/13 11:21:20;;;;;;;0.40;0.20;;;19.10;91.20;;;;;;5116243;28;20044;-80
2021/09/13 11:23:54;;;;;;;0.28;0.25;;;19.10;91.10;;;;;;5116218;28;20491;-80
2021/09/13 11:26:31;;;;;;;0.10;0.10;;;19.20;91.00;;;;;;5116048;28;20024;-80
2021/09/13 11:28:59;;;;;;;0.10;0.10;;;19.20;91.00;;;;;;5116112;28;20031;-80
2021/09/13 11:31:33;;;;;;;0.10;0.10;;;19.30;90.90;;;;;;5097779;28;20456;-81
2021/09/13 11:34:00;;;;;;;0.22;0.22;;;19.30;90.90;;;;;;5116653;28;20077;-81
2021/09/13 11:36:27;;;;;;;0.20;0.20;;;19.30;90.90;;;;;;5116175;28;20031;-81
2021/09/13 11:39:00;;;;;;;0.20;0.20;;;19.30;90.80;;;;;;5116021;28;20049;-81
2021/09/13 11:41:26;;;;;;;0.20;0.20;;;19.40;90.70;;;;;;5115893;28;20030;-79
2021/09/13 11:44:07;;;;;;;0.30;0.30;;;19.40;90.80;;;;;;5115413;28;20099;-79
2021/09/13 11:47:00;;;;;;;0.30;0.10;;;19.40;90.70;;;;;;5097410;28;20080;-79
2021/09/13 11:49:28;;;;;;;0.30;0.25;;;19.40;90.70;;;;;;5115716;28;20019;-79
2021/09/13 11:52:16;;;;;;;0.10;0.10;;;19.40;90.70;;;;;;5115687;28;20088;-79
2021/09/13 11:54:45;;;;;;;0.10;0.10;;;19.50;90.60;;;;;;5115613;28;20045;-80
2021/09/13 11:57:31;;;;;;;0.20;0.20;;;19.60;90.60;;;;;;5115460;28;20019;-80
2021/09/13 12:00:08;;;;;;;0.30;0.30;;;19.70;90.60;;;;;;5115102;28;20299;-81
2021/09/13 12:02:34;;;;;;;0.20;0.20;;;19.70;90.50;;;;;;5115465;28;20377;-80
2021/09/13 12:05:09;;;;;;;0.30;0.30;;;19.80;90.50;;;;;;5115471;28;20089;-79
2021/09/13 12:07:35;;;;;;;0.93;0.60;;;19.90;90.40;;;;;;5097189;28;20065;-79
2021/09/13 12:10:01;;;;;;;0.20;0.20;;;20.00;90.40;;;;;;5115468;28;20024;-80
2021/09/13 12:12:27;;;;;;;0.20;0.17;;;20.10;90.40;;;;;;5114760;28;20063;-81
2021/09/13 12:14:59;;;;;;;0.10;0.10;;;20.10;90.20;;;;;;5115288;28;20016;-80
2021/09/13 12:17:33;;;;;;;0.10;0.10;;;20.20;90.20;;;;;;5114517;28;20019;-79
2021/09/13 12:20:17;;;;;;;0.30;0.30;;;20.30;90.30;;;;;;5114983;28;20102;-80
2021/09/13 12:23:04;;;;;;;0.28;0.28;;;20.40;90.10;;;;;;5114975;28;20381;-81
2021/09/13 12:25:41;;;;;;;0.10;0.10;;;20.40;90.10;;;;;;5096279;28;20028;-80
2021/09/13 12:28:07;;;;;;;0.15;0.15;;;20.60;90.20;;;;;;5114519;28;20349;-80
2021/09/13 12:30:35;;;;;;;0.20;0.05;;;20.70;90.10;;;;;;5114794;28;20035;-81
2021/09/13 12:33:06;;;;;;;0.60;0.27;;;20.80;90.00;;;;;;5114889;28;20047;-80
2021/09/13 12:35:50;;;;;;;0.20;0.20;;;21.00;89.80;;;;;;5114848;28;20020;-80
2021/09/13 12:38:21;;;;;;;0.32;0.20;;;21.10;89.60;;;;;;5114684;28;20026;-80
2021/09/13 12:40:53;;;;;;;0.10;0.10;;;21.30;89.50;;;;;;5114708;28;20079;-81
2021/09/13 12:43:22;;;;;;;0.10;0.10;;;21.60;89.10;;;;;;5114105;28;20028;-80
2021/09/13 12:45:48;;;;;;;0.22;0.20;;;21.60;88.80;;;;;;5114741;28;20012;-81
2021/09/13 12:48:27;;;;;;;0.20;0.20;;;21.80;89.50;;;;;;5114597;28;20476;-81
2021/09/13 12:50:54;;;;;;;;;;;21.80;88.70;;;;;;5114969;28;20019;-80
2021/09/13 12:53:26;;;;;;;0.10;0.10;;;21.80;89.40;;;;;;5114616;28;19914;-80